Time;durP1;ratioP1;P1;durP2;ratioP2;P2;SDS_P1;SDS_P2;PMS_P1;PMS_P2;Temp;Humidity;BMP_temperature;BMP_pressure;BME280_temperature;BME280_humidity;BME280_pressure;Samples;Min_cycle;Max_cycle;Signal;HPM_P1;HPM_P2
2023/03/02 00:01:55;;;;;;;16.47;11.57;;;-3.60;1.00;;;;;;5074707;28;20207;-78
2023/03/02 00:04:47;;;;;;;20.10;11.90;;;-3.70;1.00;;;;;;5067318;28;20185;-79
2023/03/02 00:07:18;;;;;;;15.07;10.37;;;-3.70;1.00;;;;;;5066601;28;20740;-78
2023/03/02 00:09:44;;;;;;;14.60;10.80;;;-3.70;1.00;;;;;;5067718;28;20285;-78
2023/03/02 00:12:11;;;;;;;12.57;9.93;;;-3.70;1.00;;;;;;5067225;28;20371;-79
2023/03/02 00:14:36;;;;;;;13.63;9.73;;;-3.80;1.00;;;;;;5065501;28;20312;-79
2023/03/02 00:17:03;;;;;;;21.57;14.87;;;-3.80;1.00;;;;;;5065649;28;20292;-78
2023/03/02 00:19:29;;;;;;;41.47;25.43;;;-3.90;1.00;;;;;;5066520;28;20716;-78
2023/03/02 00:21:54;;;;;;;14.33;10.20;;;-3.90;1.00;;;;;;5065268;28;20189;-79
2023/03/02 00:24:20;;;;;;;11.13;7.77;;;-3.90;1.00;;;;;;5072940;28;20752;-78
2023/03/02 00:26:46;;;;;;;13.33;8.30;;;-3.90;1.00;;;;;;5066424;28;20174;-79
2023/03/02 00:29:11;;;;;;;12.03;8.10;;;-4.00;1.00;;;;;;5066143;28;20217;-79
2023/03/02 00:31:37;;;;;;;16.27;9.33;;;-4.00;1.00;;;;;;5064785;28;20263;-79
2023/03/02 00:34:03;;;;;;;10.40;7.80;;;-4.10;1.00;;;;;;5065276;28;20280;-78
2023/03/02 00:36:28;;;;;;;12.27;7.77;;;-4.10;1.00;;;;;;5073800;28;20501;-78
2023/03/02 00:38:54;;;;;;;11.20;7.53;;;-4.10;1.00;;;;;;5067367;28;20212;-79
2023/03/02 00:41:20;;;;;;;9.77;6.97;;;-4.10;1.00;;;;;;5067357;28;20683;-79
2023/03/02 00:43:47;;;;;;;13.27;7.73;;;-4.20;1.00;;;;;;5067164;28;20201;-79
2023/03/02 00:46:15;;;;;;;10.40;7.03;;;-4.20;1.00;;;;;;5068160;28;20687;-78
2023/03/02 00:48:41;;;;;;;13.53;7.40;;;-4.20;1.00;;;;;;5067787;28;20699;-80
2023/03/02 00:51:07;;;;;;;21.10;11.60;;;-4.10;1.00;;;;;;5067913;28;20268;-80
2023/03/02 00:53:33;;;;;;;24.57;13.40;;;-4.20;34.80;;;;;;5067564;28;20244;-79
2023/03/02 00:55:59;;;;;;;31.03;16.33;;;-4.20;89.40;;;;;;5065369;28;20878;-80
2023/03/02 00:58:26;;;;;;;21.23;12.13;;;-4.10;99.90;;;;;;5067470;28;20201;-78
2023/03/02 01:00:52;;;;;;;17.17;10.77;;;-4.20;99.90;;;;;;5067620;28;20197;-79
2023/03/02 01:03:17;;;;;;;21.07;10.30;;;-4.20;99.90;;;;;;5067733;28;20192;-79
2023/03/02 01:05:43;;;;;;;18.00;10.70;;;-4.20;92.50;;;;;;5066230;28;20189;-78
2023/03/02 01:08:08;;;;;;;15.50;9.63;;;-4.30;72.60;;;;;;5067892;28;20225;-79
2023/03/02 01:10:34;;;;;;;15.20;9.53;;;-4.30;64.60;;;;;;5066300;28;20188;-78
2023/03/02 01:13:00;;;;;;;16.37;9.63;;;-4.30;58.90;;;;;;5066197;28;20669;-79
2023/03/02 01:15:26;;;;;;;13.10;8.57;;;-4.40;37.40;;;;;;5068258;28;20186;-79
2023/03/02 01:17:51;;;;;;;13.13;8.50;;;-4.30;53.80;;;;;;5067980;28;20194;-78
2023/03/02 01:20:17;;;;;;;15.00;8.90;;;-4.40;46.00;;;;;;5066684;28;20211;-79
2023/03/02 01:22:43;;;;;;;11.80;7.73;;;-4.50;35.30;;;;;;5068363;28;20213;-81
2023/03/02 01:25:10;;;;;;;10.80;8.30;;;-4.50;73.40;;;;;;5068164;28;20212;-78
2023/03/02 01:27:36;;;;;;;26.33;16.57;;;-4.50;99.90;;;;;;5067542;28;20621;-78
2023/03/02 01:30:02;;;;;;;10.77;8.13;;;-4.40;99.90;;;;;;5068718;28;20236;-79
2023/03/02 01:32:28;;;;;;;10.83;7.23;;;-4.30;99.90;;;;;;5068048;28;20293;-78
2023/03/02 01:34:53;;;;;;;9.60;7.10;;;-4.30;99.90;;;;;;5068686;28;20272;-79
2023/03/02 01:37:19;;;;;;;9.17;7.00;;;-4.20;99.90;;;;;;5067562;28;20622;-78
2023/03/02 01:39:45;;;;;;;11.57;6.77;;;-4.20;99.90;;;;;;5068780;28;20224;-79
2023/03/02 01:42:11;;;;;;;12.70;8.10;;;-4.10;99.90;;;;;;5067655;28;20284;-80
2023/03/02 01:44:44;;;;;;;11.17;8.23;;;-4.00;99.90;;;;;;5066910;28;20273;-79
2023/03/02 01:47:15;;;;;;;10.90;6.70;;;-3.90;99.90;;;;;;5066688;28;20178;-78
2023/03/02 01:49:50;;;;;;;9.93;6.43;;;-3.90;99.90;;;;;;5075265;28;20197;-78
2023/03/02 01:52:16;;;;;;;11.67;6.23;;;-3.90;99.90;;;;;;5068727;28;20717;-79
2023/03/02 01:54:48;;;;;;;9.37;6.40;;;-3.90;99.90;;;;;;5067702;28;20188;-79
2023/03/02 01:57:15;;;;;;;10.27;6.80;;;-3.90;52.00;;;;;;5068158;28;20199;-78
2023/03/02 01:59:41;;;;;;;8.57;6.50;;;-4.00;1.00;;;;;;5075779;28;20201;-79
2023/03/02 02:02:09;;;;;;;11.00;7.13;;;-4.00;1.00;;;;;;5067584;28;20186;-78
2023/03/02 02:04:38;;;;;;;10.67;7.20;;;-4.10;30.60;;;;;;5074472;28;20557;-79
2023/03/02 02:07:07;;;;;;;9.53;6.97;;;-4.10;54.90;;;;;;5070276;28;20196;-78
2023/03/02 02:09:39;;;;;;;10.00;6.93;;;-4.10;71.70;;;;;;5071269;28;20209;-78
2023/03/02 02:12:05;;;;;;;10.20;6.43;;;-4.20;64.00;;;;;;5070463;28;20185;-79
2023/03/02 02:14:31;;;;;;;9.33;7.20;;;-4.30;60.10;;;;;;5071670;28;20290;-78
2023/03/02 02:16:56;;;;;;;9.23;6.67;;;-4.40;62.30;;;;;;5070705;28;20227;-80
2023/03/02 02:19:38;;;;;;;9.37;7.17;;;-4.40;99.20;;;;;;5071340;28;20649;-78
2023/03/02 02:22:04;;;;;;;12.07;7.73;;;-4.50;99.90;;;;;;5071266;28;20220;-78
2023/03/02 02:24:38;;;;;;;9.07;6.90;;;-4.50;99.90;;;;;;5072159;28;20217;-79
2023/03/02 02:27:03;;;;;;;9.73;6.50;;;-4.50;99.90;;;;;;5071561;28;20189;-79
2023/03/02 02:29:36;;;;;;;9.17;7.20;;;-4.50;99.90;;;;;;5072038;28;20220;-79
2023/03/02 02:32:22;;;;;;;16.80;9.07;;;-4.50;99.90;;;;;;5062644;28;20218;-78
2023/03/02 02:35:08;;;;;;;11.47;7.63;;;-4.50;99.90;;;;;;5070509;28;20189;-79
2023/03/02 02:37:57;;;;;;;11.50;6.87;;;-4.50;99.90;;;;;;5080538;28;20653;-78
2023/03/02 02:40:41;;;;;;;9.03;6.77;;;-4.50;1.00;;;;;;5080969;28;20194;-80
2023/03/02 02:43:11;;;;;;;8.83;6.50;;;-4.60;1.00;;;;;;5071091;28;20656;-80
2023/03/02 02:45:37;;;;;;;11.53;7.33;;;-4.60;1.00;;;;;;5072252;28;20192;-78
2023/03/02 02:48:03;;;;;;;10.83;7.17;;;-4.60;1.00;;;;;;5072631;28;20284;-79
2023/03/02 02:50:33;;;;;;;10.87;7.67;;;-4.50;1.00;;;;;;5070708;28;20189;-79
2023/03/02 02:53:04;;;;;;;9.77;6.37;;;-4.60;1.00;;;;;;5077055;28;20189;-79
2023/03/02 02:55:31;;;;;;;10.80;7.23;;;-4.60;1.00;;;;;;5072352;28;20267;-79
2023/03/02 02:57:59;;;;;;;11.50;7.00;;;-4.60;1.00;;;;;;5070841;28;20182;-79
2023/03/02 03:00:26;;;;;;;14.13;6.30;;;-4.60;1.00;;;;;;5070196;28;20215;-78
2023/03/02 03:03:03;;;;;;;8.83;6.07;;;-4.60;1.00;;;;;;5071487;28;20181;-78
2023/03/02 03:05:29;;;;;;;10.50;6.90;;;-4.60;1.00;;;;;;5072040;28;20196;-78
2023/03/02 03:08:09;;;;;;;7.30;6.10;;;-4.60;1.00;;;;;;5071024;28;20689;-79
2023/03/02 03:10:38;;;;;;;10.60;6.33;;;-4.60;1.00;;;;;;5070946;28;20185;-79
2023/03/02 03:13:06;;;;;;;8.93;6.60;;;-4.60;1.00;;;;;;5069547;28;20197;-79
2023/03/02 03:15:31;;;;;;;8.97;6.40;;;-4.60;1.00;;;;;;5069927;28;20185;-78
2023/03/02 03:17:58;;;;;;;9.93;6.90;;;-4.50;1.00;;;;;;5069682;28;20200;-79
2023/03/02 03:20:25;;;;;;;9.17;6.33;;;-4.50;1.00;;;;;;5068369;28;20189;-78
2023/03/02 03:22:54;;;;;;;9.23;6.13;;;-4.50;1.00;;;;;;5069637;28;20294;-78
2023/03/02 03:25:25;;;;;;;10.53;6.60;;;-4.60;1.00;;;;;;5067801;28;20193;-79
2023/03/02 03:27:51;;;;;;;10.23;6.10;;;-4.60;1.00;;;;;;5068692;28;20211;-79
2023/03/02 03:30:16;;;;;;;8.67;6.33;;;-4.70;1.00;;;;;;5066920;28;20182;-78
2023/03/02 03:32:42;;;;;;;10.00;6.63;;;-4.70;1.00;;;;;;5067443;28;20181;-79
2023/03/02 03:35:10;;;;;;;9.50;6.57;;;-4.70;1.00;;;;;;5067128;28;20188;-81
2023/03/02 03:37:38;;;;;;;9.87;6.97;;;-4.70;1.00;;;;;;5071839;28;20178;-80
2023/03/02 03:40:05;;;;;;;8.90;6.57;;;-4.80;1.00;;;;;;5070030;28;20697;-79
2023/03/02 03:42:31;;;;;;;12.02;9.38;;;-4.80;1.00;;;;;;5070138;28;20493;-79
2023/03/02 03:44:57;;;;;;;11.20;7.80;;;-4.80;1.00;;;;;;5072518;28;20201;-79
2023/03/02 03:47:22;;;;;;;11.37;7.10;;;-4.80;14.90;;;;;;5073207;28;20205;-78
2023/03/02 03:49:48;;;;;;;10.47;7.30;;;-4.70;99.90;;;;;;5073394;28;20207;-79
2023/03/02 03:52:14;;;;;;;10.50;7.00;;;-4.60;99.90;;;;;;5073604;28;20243;-77
2023/03/02 03:54:39;;;;;;;11.00;6.83;;;-4.50;96.60;;;;;;5072894;28;20182;-79
2023/03/02 03:57:05;;;;;;;10.33;7.00;;;-4.50;1.00;;;;;;5071704;28;20178;-79
2023/03/02 03:59:32;;;;;;;10.73;7.03;;;-4.50;1.00;;;;;;5072709;28;20692;-80
2023/03/02 04:01:59;;;;;;;11.33;7.70;;;-4.50;1.00;;;;;;5073106;28;20182;-78
2023/03/02 04:04:28;;;;;;;9.87;7.50;;;-4.50;1.00;;;;;;5071310;28;20182;-78
2023/03/02 04:06:54;;;;;;;12.77;7.07;;;-4.50;1.00;;;;;;5072688;28;20181;-79
2023/03/02 04:09:21;;;;;;;11.20;7.00;;;-4.50;1.00;;;;;;5071860;28;20224;-78
2023/03/02 04:11:49;;;;;;;10.43;6.90;;;-4.50;1.00;;;;;;5072091;28;20303;-80
2023/03/02 04:14:15;;;;;;;9.87;7.07;;;-4.60;1.00;;;;;;5077701;28;20197;-81
2023/03/02 04:16:42;;;;;;;11.53;7.20;;;-4.60;1.00;;;;;;5070438;28;20181;-81
2023/03/02 04:19:08;;;;;;;9.70;6.33;;;-4.60;1.00;;;;;;5070757;28;20228;-79
2023/03/02 04:21:37;;;;;;;11.60;7.10;;;-4.60;1.00;;;;;;5070746;28;20189;-79
2023/03/02 04:24:02;;;;;;;8.57;6.07;;;-4.70;1.00;;;;;;5070783;28;20235;-80
2023/03/02 04:26:28;;;;;;;8.80;6.57;;;-4.70;1.00;;;;;;5071024;28;20194;-79
2023/03/02 04:28:53;;;;;;;10.03;7.33;;;-4.80;1.00;;;;;;5070337;28;20581;-80
2023/03/02 04:31:19;;;;;;;12.87;7.47;;;-4.80;1.00;;;;;;5072087;28;20189;-80
2023/03/02 04:33:44;;;;;;;9.57;7.13;;;-4.80;1.00;;;;;;5071186;28;20261;-78
2023/03/02 04:36:10;;;;;;;11.83;7.97;;;-4.80;1.00;;;;;;5071638;28;20227;-80
2023/03/02 04:38:36;;;;;;;13.40;9.17;;;-4.60;99.90;;;;;;5072291;28;20284;-80
2023/03/02 04:41:02;;;;;;;15.13;9.10;;;-4.60;74.40;;;;;;5072205;28;20485;-78
2023/03/02 04:43:27;;;;;;;12.47;8.40;;;-4.60;10.60;;;;;;5070116;28;20186;-80
2023/03/02 04:45:53;;;;;;;11.23;7.60;;;-4.60;1.00;;;;;;5070779;28;20190;-79
2023/03/02 04:48:19;;;;;;;10.57;7.23;;;-4.60;1.00;;;;;;5070956;28;20212;-79
2023/03/02 04:50:45;;;;;;;12.23;8.30;;;-4.60;1.00;;;;;;5070895;28;20192;-79
2023/03/02 04:53:11;;;;;;;13.80;9.47;;;-4.50;1.00;;;;;;5069984;28;20185;-80
2023/03/02 04:55:37;;;;;;;13.40;10.07;;;-4.40;99.90;;;;;;5070713;28;20511;-79
2023/03/02 04:58:03;;;;;;;14.27;9.63;;;-4.50;74.90;;;;;;5069017;28;20221;-79
2023/03/02 05:00:32;;;;;;;11.77;8.63;;;-4.50;37.90;;;;;;5069519;28;20224;-81
2023/03/02 05:02:58;;;;;;;15.27;9.90;;;-4.50;1.00;;;;;;5069031;28;20716;-79
2023/03/02 05:05:24;;;;;;;14.07;9.90;;;-4.60;1.00;;;;;;5069859;28;20217;-79
2023/03/02 05:07:50;;;;;;;16.70;10.93;;;-4.60;1.00;;;;;;5068794;28;20220;-79
2023/03/02 05:10:17;;;;;;;14.43;10.80;;;-4.50;24.40;;;;;;5070398;28;20185;-78
2023/03/02 05:13:03;;;;;;;17.17;11.47;;;-4.50;43.20;;;;;;5069636;28;20542;-79
2023/03/02 05:15:33;;;;;;;15.97;10.67;;;-4.60;28.10;;;;;;5066754;28;20273;-81
2023/03/02 05:18:00;;;;;;;17.57;11.33;;;-4.60;12.50;;;;;;5066374;28;20189;-79
2023/03/02 05:20:29;;;;;;;17.40;12.00;;;-4.70;30.00;;;;;;5066968;28;20185;-80
2023/03/02 05:22:55;;;;;;;15.00;11.27;;;-4.70;99.90;;;;;;5066537;28;20197;-80
2023/03/02 05:25:21;;;;;;;14.77;10.90;;;-4.70;99.90;;;;;;5065923;28;20627;-80
2023/03/02 05:27:47;;;;;;;15.37;9.73;;;-4.80;99.90;;;;;;5067652;28;20213;-79
2023/03/02 05:30:13;;;;;;;13.03;8.77;;;-4.80;99.90;;;;;;5066962;28;20196;-79
2023/03/02 05:32:39;;;;;;;15.60;8.70;;;-4.80;99.90;;;;;;5066601;28;20272;-79
2023/03/02 05:35:05;;;;;;;13.80;9.20;;;-4.90;95.00;;;;;;5067774;28;20557;-79
2023/03/02 05:37:31;;;;;;;15.77;9.40;;;-4.90;93.60;;;;;;5068634;28;20268;-80
2023/03/02 05:39:56;;;;;;;17.20;10.33;;;-5.00;99.90;;;;;;5067283;28;20351;-78
2023/03/02 05:42:22;;;;;;;16.97;10.10;;;-5.00;99.90;;;;;;5068868;28;20189;-80
2023/03/02 05:44:48;;;;;;;19.93;11.23;;;-5.00;99.90;;;;;;5069186;28;20197;-78
2023/03/02 05:47:13;;;;;;;17.50;10.77;;;-5.00;99.90;;;;;;5068819;28;20181;-79
2023/03/02 05:49:39;;;;;;;16.40;10.50;;;-5.10;99.90;;;;;;5066464;28;20208;-79
2023/03/02 05:52:04;;;;;;;18.77;10.43;;;-5.10;99.90;;;;;;5067442;28;20182;-78
2023/03/02 05:54:31;;;;;;;18.60;10.87;;;-5.20;99.90;;;;;;5068289;28;20272;-80
2023/03/02 05:56:56;;;;;;;20.67;11.90;;;-5.20;99.90;;;;;;5068374;28;20185;-79
2023/03/02 05:59:22;;;;;;;31.53;18.77;;;-5.20;99.90;;;;;;5069119;28;20304;-80
2023/03/02 06:01:48;;;;;;;34.63;22.17;;;-5.20;1.00;;;;;;5068956;28;20268;-79
2023/03/02 06:04:14;;;;;;;31.30;18.83;;;-5.20;1.00;;;;;;5068610;28;20653;-80
2023/03/02 06:06:39;;;;;;;30.80;18.80;;;-5.20;1.00;;;;;;5068171;28;20196;-79
2023/03/02 06:09:05;;;;;;;37.53;24.17;;;-5.10;99.90;;;;;;5066467;28;20224;-79
2023/03/02 06:11:30;;;;;;;33.73;20.60;;;-5.10;99.90;;;;;;5066127;28;20181;-78
2023/03/02 06:13:56;;;;;;;36.77;21.07;;;-5.00;1.00;;;;;;5066888;28;20276;-79
2023/03/02 06:16:22;;;;;;;40.47;22.40;;;-4.90;99.90;;;;;;5066660;28;20208;-79
2023/03/02 06:18:47;;;;;;;35.30;19.97;;;-4.70;1.00;;;;;;5066734;28;20197;-80
2023/03/02 06:21:13;;;;;;;37.77;20.70;;;-4.70;99.90;;;;;;5066879;28;20193;-80
2023/03/02 06:23:39;;;;;;;39.93;22.40;;;-4.70;20.50;;;;;;5065931;28;20653;-79
2023/03/02 06:26:09;;;;;;;42.83;22.57;;;-4.60;1.00;;;;;;5066255;28;20204;-79
2023/03/02 06:28:35;;;;;;;49.60;24.37;;;-4.60;99.90;;;;;;5071016;28;20278;-79
2023/03/02 06:31:01;;;;;;;48.50;24.37;;;-4.40;99.90;;;;;;5065842;28;20260;-80
2023/03/02 06:33:26;;;;;;;53.10;26.90;;;-4.30;1.00;;;;;;5064285;28;20177;-79
2023/03/02 06:35:52;;;;;;;48.17;25.17;;;-4.10;99.90;;;;;;5066360;28;20181;-79
2023/03/02 06:38:17;;;;;;;48.50;24.60;;;-4.10;1.00;;;;;;5066171;28;20206;-80
2023/03/02 06:40:43;;;;;;;47.27;24.80;;;-4.00;1.00;;;;;;5067039;28;20217;-80
2023/03/02 06:43:09;;;;;;;43.93;23.87;;;-3.90;99.90;;;;;;5069169;28;20197;-79
2023/03/02 06:45:34;;;;;;;46.03;22.33;;;-3.90;99.90;;;;;;5067113;28;20211;-79
2023/03/02 06:48:01;;;;;;;48.53;25.70;;;-3.70;1.00;;;;;;5068395;28;20213;-79
2023/03/02 06:50:27;;;;;;;46.23;24.63;;;-3.70;1.00;;;;;;5068003;28;20177;-81
2023/03/02 06:52:52;;;;;;;51.67;27.43;;;-3.50;1.00;;;;;;5067690;28;20260;-80
2023/03/02 06:55:18;;;;;;;48.73;27.87;;;-3.40;1.00;;;;;;5069260;28;20260;-79
2023/03/02 06:57:44;;;;;;;44.83;26.33;;;-3.30;99.90;;;;;;5070787;28;20211;-78
2023/03/02 07:00:23;;;;;;;40.30;25.60;;;-3.10;99.90;;;;;;5070921;28;20217;-80
2023/03/02 07:02:49;;;;;;;46.97;26.30;;;-3.00;99.90;;;;;;5075572;28;20185;-79
2023/03/02 07:05:15;;;;;;;40.20;23.87;;;-2.80;99.90;;;;;;5070242;28;20653;-80
2023/03/02 07:07:41;;;;;;;49.00;26.23;;;-2.80;99.90;;;;;;5070524;28;20209;-80
2023/03/02 07:10:08;;;;;;;37.70;21.83;;;-2.80;1.00;;;;;;5070088;28;20274;-79
2023/03/02 07:12:34;;;;;;;37.47;22.37;;;-2.60;1.00;;;;;;5075135;28;20312;-79
2023/03/02 07:14:59;;;;;;;41.77;23.93;;;-2.50;1.00;;;;;;5068959;28;20285;-79
2023/03/02 07:17:25;;;;;;;41.63;24.87;;;-2.50;1.00;;;;;;5068382;28;20621;-79
2023/03/02 07:19:50;;;;;;;37.07;22.20;;;-2.40;1.00;;;;;;5068638;28;20208;-79
2023/03/02 07:22:16;;;;;;;37.97;22.50;;;-2.40;1.00;;;;;;5069877;28;20177;-79
2023/03/02 07:24:41;;;;;;;38.03;24.83;;;-2.60;1.00;;;;;;5068268;28;20182;-79
2023/03/02 07:27:07;;;;;;;36.00;22.73;;;-2.10;1.00;;;;;;5069459;28;20570;-79
2023/03/02 07:29:33;;;;;;;40.00;24.73;;;-2.10;1.00;;;;;;5069796;28;20240;-79
2023/03/02 07:31:58;;;;;;;36.30;22.43;;;-2.10;1.00;;;;;;5070111;28;20177;-79
2023/03/02 07:34:24;;;;;;;35.47;23.93;;;-2.00;99.90;;;;;;5069425;28;20182;-79
2023/03/02 07:36:50;;;;;;;40.37;25.43;;;-1.90;99.90;;;;;;5067795;28;20209;-79
2023/03/02 07:39:16;;;;;;;39.90;26.10;;;-1.90;99.90;;;;;;5067869;28;20209;-80
2023/03/02 07:41:42;;;;;;;39.73;25.70;;;-1.80;92.00;;;;;;5068372;28;20186;-79
2023/03/02 07:44:08;;;;;;;32.40;22.33;;;-1.60;1.00;;;;;;5068078;28;20193;-79
2023/03/02 07:46:33;;;;;;;32.93;21.63;;;-1.50;1.00;;;;;;5067634;28;20190;-80
2023/03/02 07:48:59;;;;;;;29.67;20.27;;;-1.40;1.00;;;;;;5067970;28;20263;-79
2023/03/02 07:51:25;;;;;;;29.37;20.57;;;-1.20;99.90;;;;;;5069286;28;20181;-79
2023/03/02 07:53:51;;;;;;;29.03;20.17;;;-1.10;99.90;;;;;;5068698;28;20186;-79
2023/03/02 07:56:17;;;;;;;27.70;19.20;;;-1.10;1.00;;;;;;5069219;28;20205;-79
2023/03/02 07:58:42;;;;;;;25.63;19.37;;;-1.00;1.00;;;;;;5069052;28;20228;-79
2023/03/02 08:01:08;;;;;;;24.93;17.63;;;-1.00;99.90;;;;;;5066799;28;20657;-77
2023/03/02 08:03:34;;;;;;;26.87;17.80;;;-1.00;99.90;;;;;;5065594;28;20824;-80
2023/03/02 08:06:08;;;;;;;23.97;17.00;;;-1.10;1.00;;;;;;5066990;28;20193;-78
2023/03/02 08:08:34;;;;;;;19.60;15.40;;;-1.20;99.90;;;;;;5066393;28;20209;-78
2023/03/02 08:11:12;;;;;;;16.77;13.43;;;-1.20;99.90;;;;;;5068980;28;20185;-80
2023/03/02 08:13:38;;;;;;;20.73;16.70;;;-1.10;99.90;;;;;;5067169;28;20691;-79
2023/03/02 08:16:05;;;;;;;24.13;17.27;;;-1.10;1.00;;;;;;5067935;28;20185;-80
2023/03/02 08:18:32;;;;;;;24.87;18.80;;;-0.90;1.00;;;;;;5067566;28;20205;-80
2023/03/02 08:20:58;;;;;;;24.10;17.57;;;-0.90;1.00;;;;;;5075171;28;20200;-81
2023/03/02 08:23:25;;;;;;;25.07;17.33;;;-0.80;1.00;;;;;;5064859;28;20242;-79
2023/03/02 08:25:55;;;;;;;22.57;16.67;;;-0.70;1.00;;;;;;5064714;28;20192;-81
2023/03/02 08:28:21;;;;;;;21.43;17.43;;;-0.60;1.00;;;;;;5065076;28;20209;-80
2023/03/02 08:30:58;;;;;;;23.43;17.00;;;-0.50;99.90;;;;;;5065013;28;20205;-80
2023/03/02 08:33:25;;;;;;;22.37;17.00;;;-0.40;1.00;;;;;;5074972;28;20177;-80
2023/03/02 08:36:16;;;;;;;23.73;17.13;;;-0.40;1.00;;;;;;5067137;28;20234;-80
2023/03/02 08:38:42;;;;;;;21.17;16.00;;;-0.30;1.00;;;;;;5060866;28;20298;-82
2023/03/02 08:41:13;;;;;;;20.40;15.60;;;-0.20;99.90;;;;;;5066381;28;20716;-80
2023/03/02 08:43:39;;;;;;;21.00;16.53;;;-0.10;99.90;;;;;;5075325;28;20181;-82
2023/03/02 08:46:05;;;;;;;18.93;15.07;;;0.00;99.90;;;;;;5068143;28;20185;-80
2023/03/02 08:48:30;;;;;;;19.53;14.80;;;0.10;1.00;;;;;;5066678;28;20228;-80
2023/03/02 08:51:01;;;;;;;18.83;14.80;;;0.20;99.90;;;;;;5069967;28;20181;-80
2023/03/02 08:53:30;;;;;;;22.37;15.70;;;0.20;1.00;;;;;;5070216;28;20182;-79
2023/03/02 08:55:55;;;;;;;18.17;14.90;;;0.20;1.00;;;;;;5074960;28;20181;-80
2023/03/02 08:58:21;;;;;;;19.27;15.47;;;0.20;1.00;;;;;;5066517;28;20228;-79
2023/03/02 09:00:48;;;;;;;19.47;15.93;;;0.30;1.00;;;;;;5066184;28;20213;-81
2023/03/02 09:03:14;;;;;;;19.77;15.57;;;0.40;1.00;;;;;;5067514;28;20189;-80
2023/03/02 09:05:40;;;;;;;22.43;16.93;;;0.50;1.00;;;;;;5067557;28;20413;-79
2023/03/02 09:08:05;;;;;;;37.43;20.93;;;0.40;1.00;;;;;;5074551;28;20200;-79
2023/03/02 09:10:31;;;;;;;19.67;15.67;;;0.60;1.00;;;;;;5068155;28;20612;-79
2023/03/02 09:12:57;;;;;;;26.23;17.30;;;0.80;1.00;;;;;;5067524;28;20252;-79
2023/03/02 09:15:22;;;;;;;17.33;14.03;;;0.90;1.00;;;;;;5065326;28;20645;-80
2023/03/02 09:17:48;;;;;;;18.93;15.33;;;0.80;99.90;;;;;;5067540;28;20193;-79
2023/03/02 09:20:14;;;;;;;18.53;15.83;;;0.70;99.90;;;;;;5065654;28;20206;-79
2023/03/02 09:22:41;;;;;;;20.27;15.60;;;0.60;1.00;;;;;;5065807;28;20185;-79
2023/03/02 09:25:08;;;;;;;22.30;15.80;;;0.60;1.00;;;;;;5065467;28;20213;-79
2023/03/02 09:27:33;;;;;;;31.10;27.40;;;0.80;1.00;;;;;;5064768;28;20185;-80
2023/03/02 09:29:59;;;;;;;18.80;16.67;;;0.80;1.00;;;;;;5063132;28;20204;-80
2023/03/02 09:32:24;;;;;;;19.77;15.47;;;0.90;1.00;;;;;;5063610;28;20192;-79
2023/03/02 09:34:50;;;;;;;18.23;15.10;;;1.00;1.00;;;;;;5067048;28;20189;-79
2023/03/02 09:37:16;;;;;;;17.40;14.30;;;1.10;1.00;;;;;;5066815;28;20672;-79
2023/03/02 09:39:41;;;;;;;16.87;14.27;;;1.00;1.00;;;;;;5065430;28;20205;-79
2023/03/02 09:42:32;;;;;;;20.67;15.83;;;1.00;99.90;;;;;;5064023;28;20200;-79
2023/03/02 09:45:00;;;;;;;17.00;13.67;;;0.90;99.90;;;;;;5061460;28;20673;-78
2023/03/02 09:47:36;;;;;;;15.47;13.33;;;1.10;99.90;;;;;;5066441;28;20808;-81
2023/03/02 09:50:32;;;;;;;15.40;12.87;;;1.20;99.90;;;;;;5067359;28;20193;-77
2023/03/02 09:53:33;;;;;;;17.60;13.67;;;1.20;99.90;;;;;;5067170;28;20177;-79
2023/03/02 09:55:59;;;;;;;19.63;16.47;;;1.40;99.90;;;;;;5068348;28;20623;-79
2023/03/02 09:58:30;;;;;;;24.57;19.70;;;1.30;99.90;;;;;;5065620;28;20708;-79
2023/03/02 10:00:59;;;;;;;24.37;20.83;;;1.70;99.90;;;;;;5067533;28;20188;-79
2023/03/02 10:03:35;;;;;;;17.93;13.40;;;1.40;99.90;;;;;;5072622;28;20188;-79
2023/03/02 10:06:00;;;;;;;17.67;13.80;;;1.60;99.90;;;;;;5062649;28;20187;-81
2023/03/02 10:08:29;;;;;;;16.90;13.10;;;1.70;99.90;;;;;;5066731;28;20209;-79
2023/03/02 10:11:33;;;;;;;15.77;13.73;;;1.80;99.90;;;;;;5066471;28;20255;-79
2023/03/02 10:14:13;;;;;;;18.37;14.63;;;1.90;99.90;;;;;;5068506;28;20200;-79
2023/03/02 10:17:11;;;;;;;14.43;12.77;;;2.00;99.90;;;;;;5065169;28;20257;-79
2023/03/02 10:19:56;;;;;;;14.23;12.33;;;2.30;99.90;;;;;;5075053;28;20204;-78
2023/03/02 10:22:33;;;;;;;16.93;13.37;;;2.30;99.90;;;;;;5074815;28;20664;-78
2023/03/02 10:25:21;;;;;;;17.30;14.40;;;2.20;99.90;;;;;;5066273;28;20749;-79
2023/03/02 10:27:53;;;;;;;18.67;14.67;;;2.30;99.90;;;;;;5069101;28;20215;-79
2023/03/02 10:30:27;;;;;;;14.47;12.50;;;2.40;99.90;;;;;;5070209;28;20204;-78
2023/03/02 10:32:56;;;;;;;15.20;12.87;;;2.40;99.90;;;;;;5070065;28;20176;-78
2023/03/02 10:35:25;;;;;;;14.90;13.27;;;2.40;99.90;;;;;;5069768;28;20177;-79
2023/03/02 10:37:58;;;;;;;19.80;17.10;;;2.30;99.90;;;;;;5067380;28;20200;-78
2023/03/02 10:40:42;;;;;;;38.63;33.67;;;2.10;99.90;;;;;;5070390;28;20185;-78
2023/03/02 10:43:58;;;;;;;19.70;16.57;;;1.90;99.90;;;;;;5076430;28;20185;-80
2023/03/02 10:46:24;;;;;;;16.80;13.83;;;2.00;99.90;;;;;;5038497;28;20201;-79
2023/03/02 10:48:57;;;;;;;17.27;15.37;;;2.10;99.90;;;;;;5069591;28;20236;-78
2023/03/02 10:51:31;;;;;;;19.93;16.50;;;2.10;99.90;;;;;;5079230;28;20266;-79
2023/03/02 10:54:05;;;;;;;18.23;15.43;;;2.20;99.90;;;;;;5068580;28;20185;-78
2023/03/02 10:56:31;;;;;;;18.77;14.93;;;2.10;99.90;;;;;;5066155;28;20202;-79
2023/03/02 10:59:02;;;;;;;18.47;15.00;;;2.20;99.90;;;;;;5068117;28;20233;-81
2023/03/02 11:01:28;;;;;;;19.80;16.37;;;2.40;99.90;;;;;;5066803;28;20185;-79
2023/03/02 11:03:59;;;;;;;32.77;28.20;;;2.60;99.90;;;;;;5067981;28;20603;-79
2023/03/02 11:06:27;;;;;;;19.30;16.70;;;2.60;99.90;;;;;;5066842;28;20615;-80
2023/03/02 11:09:04;;;;;;;17.70;15.30;;;2.40;99.90;;;;;;5066775;28;20282;-80
2023/03/02 11:11:31;;;;;;;19.73;15.93;;;2.40;99.90;;;;;;5068923;28;20205;-79
2023/03/02 11:14:29;;;;;;;22.10;15.17;;;2.10;99.90;;;;;;5067186;28;20233;-80
2023/03/02 11:16:55;;;;;;;19.93;16.27;;;2.30;99.90;;;;;;5023469;28;20243;-79
2023/03/02 11:19:36;;;;;;;20.07;15.97;;;2.30;99.90;;;;;;5069381;28;20224;-79
2023/03/02 11:22:22;;;;;;;21.03;17.17;;;2.40;99.90;;;;;;5068819;28;20594;-79
2023/03/02 11:24:52;;;;;;;22.33;17.67;;;2.50;99.90;;;;;;5069623;28;20205;-80
2023/03/02 11:27:32;;;;;;;20.07;17.23;;;2.40;99.90;;;;;;5068235;28;20209;-79
2023/03/02 11:30:00;;;;;;;22.20;17.27;;;2.30;99.90;;;;;;5069730;28;20205;-80
2023/03/02 11:32:38;;;;;;;19.97;16.70;;;2.30;99.90;;;;;;5067458;28;20192;-79
2023/03/02 11:35:17;;;;;;;20.23;16.60;;;2.40;99.90;;;;;;5067389;28;20185;-79
2023/03/02 11:37:50;;;;;;;21.87;17.87;;;2.50;99.90;;;;;;5074599;28;20173;-79
2023/03/02 11:40:41;;;;;;;22.63;18.07;;;2.50;99.90;;;;;;5075288;28;20239;-79
2023/03/02 11:43:08;;;;;;;20.90;16.60;;;2.50;99.90;;;;;;5067699;28;20180;-80
2023/03/02 11:45:46;;;;;;;20.10;16.47;;;2.40;99.90;;;;;;5075657;28;20181;-80
2023/03/02 11:48:18;;;;;;;21.97;17.83;;;2.40;99.90;;;;;;5069001;28;20746;-78
2023/03/02 11:50:52;;;;;;;21.47;18.07;;;2.30;99.90;;;;;;5068444;28;20653;-81
2023/03/02 11:53:19;;;;;;;20.53;17.47;;;2.50;99.90;;;;;;5068683;28;20637;-79
2023/03/02 11:55:49;;;;;;;21.07;16.93;;;2.30;99.90;;;;;;5068566;28;20173;-79
2023/03/02 11:58:24;;;;;;;22.87;17.67;;;2.40;99.90;;;;;;5067909;28;20252;-79
2023/03/02 12:00:51;;;;;;;20.67;16.33;;;2.70;99.90;;;;;;5068198;28;20177;-78
2023/03/02 12:03:36;;;;;;;19.23;16.53;;;2.80;99.90;;;;;;5068488;28;20194;-79
2023/03/02 12:06:14;;;;;;;19.53;16.20;;;2.80;99.90;;;;;;5074854;28;20203;-78
2023/03/02 12:08:43;;;;;;;20.87;17.10;;;2.80;99.90;;;;;;5075320;28;20571;-80
2023/03/02 12:11:18;;;;;;;18.40;15.70;;;2.80;99.90;;;;;;5069956;28;20270;-79
2023/03/02 12:14:05;;;;;;;19.20;15.83;;;3.00;99.90;;;;;;5066883;28;20249;-78
2023/03/02 12:16:36;;;;;;;19.70;15.93;;;3.00;99.90;;;;;;5067793;28;20232;-78
2023/03/02 12:19:26;;;;;;;21.13;16.87;;;3.00;99.90;;;;;;5069200;28;20229;-79
2023/03/02 12:21:56;;;;;;;18.70;15.90;;;3.10;99.90;;;;;;5069750;28;20177;-79
2023/03/02 12:24:31;;;;;;;19.00;16.83;;;3.10;99.90;;;;;;5066707;28;20185;-79
2023/03/02 12:27:00;;;;;;;20.63;17.13;;;3.10;99.90;;;;;;5066610;28;20273;-79
2023/03/02 12:29:36;;;;;;;22.47;17.77;;;3.10;99.90;;;;;;5076489;28;20730;-79
2023/03/02 12:32:11;;;;;;;20.70;17.73;;;3.10;99.90;;;;;;5076064;28;20192;-79
2023/03/02 12:34:41;;;;;;;23.40;18.73;;;2.90;99.90;;;;;;5068317;28;20169;-79
2023/03/02 12:37:20;;;;;;;20.67;17.43;;;2.90;99.90;;;;;;5067981;28;20188;-78
2023/03/02 12:40:10;;;;;;;22.50;17.97;;;3.00;99.90;;;;;;5067456;28;20577;-79
2023/03/02 12:42:48;;;;;;;22.50;17.70;;;2.80;99.90;;;;;;5065891;28;20242;-79
2023/03/02 12:45:45;;;;;;;23.27;19.53;;;3.00;99.90;;;;;;5072863;28;20670;-78
2023/03/02 12:48:25;;;;;;;23.47;18.50;;;3.10;99.90;;;;;;5065623;28;20213;-78
2023/03/02 12:50:55;;;;;;;24.87;18.57;;;3.00;99.90;;;;;;5064611;28;20188;-78